Dodsland, Canada
Current Conditions -  °F | °C
As of 3:00 AM on Saturday 20 Dec 2014 (Local Time) from CYKY Reporting Station
Overcast Overcast  
Wind Chill: 21°   Ceiling: 4300
Heat Index: 21°   Visibility: 15mi
Dew Point: 21°   Wind: 0mph
Humidity: 100%   Direction: NA
Pressure: 29.67"   Gusts: NA
Location:  51.8°N, 108.83°W
Report Text: CYKY 200900Z 00000KT 15SM OVC043 M06/M06 A2967 RMK SC8 SLP084
Loading
Personal Weather Stations






























Interactive Weather Map New forecast layout! Learn more

10-Day Weather Forecast

Advertisements
Track Severe Weather on mobile